createdAt,value
2018-07-09T00:02:13.896Z,18.24
2018-07-09T00:08:08.877Z,16.39
2018-07-09T00:14:03.868Z,14.08
2018-07-09T00:19:58.864Z,15.33
2018-07-09T00:25:53.860Z,15.16
2018-07-09T00:31:48.922Z,16.48
2018-07-09T00:37:43.875Z,19.6
2018-07-09T00:43:38.953Z,17.33
2018-07-09T00:49:33.949Z,18.25
2018-07-09T00:55:28.964Z,42.65
2018-07-09T01:01:23.902Z,44.27
2018-07-09T01:07:18.920Z,31.13
2018-07-09T01:13:13.904Z,25.8
2018-07-09T01:19:08.918Z,22.28
2018-07-09T01:25:03.926Z,22.09
2018-07-09T01:30:58.922Z,17.33
2018-07-09T01:36:53.922Z,19.91
2018-07-09T01:42:48.890Z,18.82
2018-07-09T01:48:43.917Z,19.36
2018-07-09T01:54:38.937Z,18.87
2018-07-09T02:00:33.925Z,20
2018-07-09T02:06:28.913Z,17.04
2018-07-09T02:12:23.927Z,15.15
2018-07-09T02:18:18.931Z,16.98
2018-07-09T02:24:13.952Z,18.63
2018-07-09T02:30:08.940Z,21.43
2018-07-09T02:36:03.976Z,18.76
2018-07-09T02:41:58.992Z,21.63
2018-07-09T02:47:53.972Z,19.6
2018-07-09T02:53:48.958Z,19.23
2018-07-09T02:59:43.961Z,17.74
2018-07-09T03:05:38.977Z,17.17
2018-07-09T03:11:33.983Z,16.6
2018-07-09T03:17:29.000Z,18.83
2018-07-09T03:23:23.975Z,14.67
2018-07-09T03:29:19.047Z,15.46
2018-07-09T03:35:13.994Z,15.27
2018-07-09T03:41:08.969Z,19.46
2018-07-09T03:47:03.973Z,18.7
2018-07-09T03:52:59.008Z,16.81
2018-07-09T03:58:54.026Z,16.69
2018-07-09T04:04:49.017Z,0
2018-07-09T04:10:44.015Z,17.06
2018-07-09T04:16:39.008Z,16.43
2018-07-09T04:22:34.029Z,16.21
2018-07-09T04:28:29.019Z,19.76
2018-07-09T04:34:24.062Z,23.59
2018-07-09T04:40:19.066Z,19.3
2018-07-09T04:46:14.012Z,20.4
2018-07-09T04:52:09.083Z,19.14
2018-07-09T04:58:04.029Z,20.57
2018-07-09T05:03:59.032Z,19.07
2018-07-09T05:09:54.081Z,20.3
2018-07-09T05:15:49.045Z,20.5
2018-07-09T05:21:44.139Z,25.91
2018-07-09T05:27:39.073Z,17.19
2018-07-09T05:33:34.050Z,19.8
2018-07-09T05:39:29.067Z,18.21
2018-07-09T05:45:24.085Z,17.82
2018-07-09T05:51:19.099Z,14.51
2018-07-09T05:57:14.076Z,12.27
2018-07-09T06:03:09.102Z,6.22
2018-07-09T06:09:04.144Z,8.5
2018-07-09T06:14:59.188Z,6.97
2018-07-09T06:20:54.085Z,11.61
2018-07-09T06:26:49.088Z,5.46
2018-07-09T06:32:44.102Z,9.04
2018-07-09T06:38:39.153Z,5.59
2018-07-09T06:44:34.119Z,6.26
2018-07-09T06:50:29.111Z,9
2018-07-09T06:56:24.096Z,7.46
2018-07-09T07:02:19.154Z,8.9
2018-07-09T07:08:14.115Z,20.21
2018-07-09T07:14:09.231Z,9.83
2018-07-09T07:20:04.121Z,11.9
2018-07-09T07:25:59.179Z,8.93
2018-07-09T07:31:54.116Z,34.98
2018-07-09T07:37:49.170Z,3.88
2018-07-09T07:43:44.134Z,3.77
2018-07-09T07:49:39.133Z,4.09
2018-07-09T07:55:34.146Z,2.96
2018-07-09T08:01:29.146Z,2.67
2018-07-09T08:07:24.159Z,3.2
2018-07-09T08:13:29.343Z,3.16
2018-07-09T08:19:14.177Z,3.69
2018-07-09T08:25:09.282Z,3.2
2018-07-09T08:31:04.269Z,60.95
2018-07-09T08:36:59.221Z,2.56
2018-07-09T08:42:54.193Z,2.57
2018-07-09T08:48:49.170Z,4.56
2018-07-09T08:54:44.174Z,2.65
2018-07-09T09:00:39.200Z,2.72
2018-07-09T09:06:34.192Z,2.89
2018-07-09T09:12:29.248Z,2.85
2018-07-09T09:18:24.193Z,5.35
2018-07-09T09:24:19.194Z,2.51
2018-07-09T09:30:14.186Z,5.57
2018-07-09T09:36:09.183Z,1.78
2018-07-09T09:42:04.186Z,1.72
2018-07-09T09:47:59.197Z,4.35
2018-07-09T09:53:54.240Z,6.11
2018-07-09T09:59:49.228Z,1.86
2018-07-09T10:05:44.219Z,2.65
2018-07-09T10:11:39.235Z,2.42
2018-07-09T10:17:34.316Z,2.23
2018-07-09T10:23:29.284Z,4.28
2018-07-09T10:29:24.229Z,1.9
2018-07-09T10:35:19.242Z,1.63
2018-07-09T10:41:14.253Z,4.26
2018-07-09T10:47:09.270Z,1.61
2018-07-09T10:53:04.233Z,5.64
2018-07-09T10:58:59.296Z,1.9
2018-07-09T11:04:54.249Z,1.93
2018-07-09T11:10:49.238Z,3.37
2018-07-09T11:16:44.259Z,2.44
2018-07-09T11:22:39.316Z,2.13
2018-07-09T11:28:34.271Z,2.92
2018-07-09T11:34:29.316Z,4.23
2018-07-09T11:40:24.266Z,2.03
2018-07-09T11:46:19.271Z,1.47
2018-07-09T11:52:14.331Z,4.55
2018-07-09T11:58:09.274Z,1.4
2018-07-09T12:04:04.267Z,2.13
2018-07-09T12:09:59.336Z,1.45
2018-07-09T12:15:54.351Z,2.33
2018-07-09T12:21:49.356Z,1.25
2018-07-09T12:27:44.317Z,1.78
2018-07-09T12:33:39.336Z,1.35
2018-07-09T12:39:34.383Z,1.36
2018-07-09T12:45:29.404Z,1.11
2018-07-09T12:51:24.363Z,1.08
2018-07-09T12:57:19.311Z,1.59
2018-07-09T13:03:14.307Z,0.9
2018-07-09T13:09:09.320Z,0.99
2018-07-09T13:15:04.432Z,1.93
2018-07-09T13:20:59.335Z,1.18
2018-07-09T13:26:54.366Z,1.06
2018-07-09T13:32:49.369Z,1.27
2018-07-09T13:38:44.342Z,1.19
2018-07-09T13:44:39.346Z,1.24
2018-07-09T13:50:34.359Z,2.6
2018-07-09T13:56:29.388Z,1.25
2018-07-09T14:02:24.332Z,1.42
2018-07-09T14:08:19.375Z,1.38
2018-07-09T14:14:14.346Z,1.74
2018-07-09T14:20:09.367Z,1.78
2018-07-09T14:26:04.369Z,3.07
2018-07-09T14:31:59.375Z,4.49
2018-07-09T14:37:54.386Z,1.81
2018-07-09T14:43:49.380Z,2.09
2018-07-09T14:49:44.397Z,2.27
2018-07-09T14:55:39.387Z,5.17
2018-07-09T15:01:34.393Z,8.47
2018-07-09T15:07:29.382Z,3.1
2018-07-09T15:13:24.490Z,3.67
2018-07-09T15:19:19.389Z,1.79
2018-07-09T15:25:14.811Z,1.71
2018-07-09T15:31:09.420Z,2.19
2018-07-09T15:37:04.458Z,6.94
2018-07-09T15:42:59.441Z,4.21
2018-07-09T15:48:54.449Z,9.62
2018-07-09T15:54:49.410Z,5.77
2018-07-09T16:00:44.417Z,5
2018-07-09T16:06:39.423Z,4.61
2018-07-09T16:12:34.459Z,5.49
2018-07-09T16:18:29.441Z,14.32
2018-07-09T16:24:24.422Z,7.07
2018-07-09T16:30:20.085Z,2.86
2018-07-09T16:36:14.717Z,3.01
2018-07-09T16:42:09.502Z,5.69
2018-07-09T16:48:04.539Z,2.18
2018-07-09T16:53:59.450Z,2.03
2018-07-09T16:59:54.579Z,2.11
2018-07-09T17:05:49.446Z,5.14
2018-07-09T17:11:44.464Z,2.43
2018-07-09T17:17:39.478Z,2.01
2018-07-09T17:23:34.462Z,5.26
2018-07-09T17:29:29.465Z,5.82
2018-07-09T17:35:24.521Z,3.22
2018-07-09T17:41:19.496Z,3.06
2018-07-09T17:47:14.536Z,1.54
2018-07-09T17:53:09.708Z,3.34
2018-07-09T17:59:04.496Z,7.51
2018-07-09T18:04:59.559Z,7.53
2018-07-09T18:10:54.501Z,2.71
2018-07-09T18:16:49.514Z,2.31
2018-07-09T18:22:44.718Z,2.26
2018-07-09T18:28:39.612Z,2.49
2018-07-09T18:34:34.485Z,2.8
2018-07-09T18:40:29.529Z,2.37
2018-07-09T18:46:24.654Z,4.74
2018-07-09T18:52:19.699Z,3.02
2018-07-09T18:58:14.573Z,3.38
2018-07-09T19:04:09.547Z,3.06
2018-07-09T19:10:04.572Z,5.13
2018-07-09T19:15:59.629Z,4.85
2018-07-09T19:21:54.543Z,5.48
2018-07-09T19:27:49.522Z,2.98
2018-07-09T19:33:44.588Z,2.72
2018-07-09T19:39:39.537Z,9.5
2018-07-09T19:45:34.588Z,2.31
2018-07-09T19:51:29.562Z,4.5
2018-07-09T19:57:24.560Z,2.73
2018-07-09T20:03:19.591Z,3.06
2018-07-09T20:09:14.581Z,6.58
2018-07-09T20:15:09.651Z,4.24
2018-07-09T20:21:04.614Z,3.36
2018-07-09T20:26:59.706Z,5.23
2018-07-09T20:32:54.671Z,8.86
2018-07-09T20:38:49.653Z,6.82
2018-07-09T20:44:44.581Z,5.04
2018-07-09T20:50:39.636Z,3.96
2018-07-09T20:56:34.644Z,6.98
2018-07-09T21:02:29.605Z,3.74
2018-07-09T21:08:24.649Z,3.73
2018-07-09T21:14:19.606Z,4.45
2018-07-09T21:20:14.614Z,7.16
2018-07-09T21:26:09.683Z,7.21
2018-07-09T21:32:04.627Z,4.97
2018-07-09T21:37:59.735Z,6.22
2018-07-09T21:43:54.733Z,4.39
2018-07-09T21:49:49.670Z,5.25
2018-07-09T21:55:44.628Z,6.19
2018-07-09T22:01:39.683Z,5.92
2018-07-09T22:07:34.692Z,6.69
2018-07-09T22:13:29.663Z,5.84
2018-07-09T22:19:24.631Z,9.85
2018-07-09T22:25:19.645Z,5.48
2018-07-09T22:31:14.663Z,8.29
2018-07-09T22:37:09.678Z,8.31
2018-07-09T22:43:04.672Z,5.23
2018-07-09T22:48:59.648Z,7.7
2018-07-09T22:54:54.703Z,6.68
2018-07-09T23:00:49.728Z,7.42
2018-07-09T23:06:44.727Z,7.29
2018-07-09T23:12:39.692Z,5.75
2018-07-09T23:18:34.710Z,5.43
2018-07-09T23:24:29.704Z,10.23
2018-07-09T23:30:24.703Z,7.84
2018-07-09T23:36:19.745Z,9.83
2018-07-09T23:42:14.750Z,8.87
2018-07-09T23:48:09.720Z,8.6
2018-07-09T23:54:04.723Z,9.36
2018-07-09T23:59:59.805Z,8.46
